Time;durP1;ratioP1;P1;durP2;ratioP2;P2;SDS_P1;SDS_P2;PMS_P1;PMS_P2;Temp;Humidity;BMP_temperature;BMP_pressure;BME280_temperature;BME280_humidity;BME280_pressure;Samples;Min_cycle;Max_cycle;Signal;HPM_P1;HPM_P2
2021/12/23 09:12:46;;;;;;;137.13;73.20;;;;;;;-6.05;85.30;98606.81;1864634;76;24566;-66
2021/12/23 09:15:16;;;;;;;107.10;55.10;;;;;;;-6.00;85.25;98604.51;1823426;77;20893;-62
2021/12/23 09:17:53;;;;;;;82.82;44.27;;;;;;;-5.89;85.15;98605.94;1825739;78;21510;-66
2021/12/23 09:20:27;;;;;;;78.78;42.95;;;;;;;-5.72;85.25;98603.02;1828608;77;21015;-67
2021/12/23 09:23:07;;;;;;;87.42;44.38;;;;;;;-5.51;85.05;98603.69;1824251;78;21040;-63
2021/12/23 09:25:37;;;;;;;70.45;39.38;;;;;;;-5.33;84.78;98604.72;1823971;77;22488;-62
2021/12/23 09:28:20;;;;;;;69.42;41.02;;;;;;;-5.14;84.62;98596.41;1817427;77;20947;-61
2021/12/23 09:33:21;;;;;;;56.60;33.67;;;;;;;-4.81;84.06;98587.28;1829730;78;20941;-62
2021/12/23 09:35:48;;;;;;;62.62;35.03;;;;;;;-4.63;83.81;98586.92;1830579;77;21455;-62
2021/12/23 09:38:30;;;;;;;61.23;36.83;;;;;;;-4.44;83.50;98579.36;1831210;77;21014;-67
2021/12/23 09:41:18;;;;;;;66.20;38.03;;;;;;;-4.26;83.21;98575.87;1822849;78;21051;-67
2021/12/23 09:43:45;;;;;;;44.27;26.47;;;;;;;-4.06;82.73;98576.61;1825259;78;21207;-60
2021/12/23 09:46:19;;;;;;;44.00;26.97;;;;;;;-3.99;82.11;98569.66;1824772;77;20917;-62
2021/12/23 09:48:46;;;;;;;171.57;65.30;;;;;;;-3.98;81.78;98566.05;1829641;78;20966;-66
2021/12/23 09:51:18;;;;;;;48.50;29.32;;;;;;;-3.94;81.54;98567.30;1822446;77;21020;-63
2021/12/23 09:53:58;;;;;;;48.70;28.60;;;;;;;-3.95;80.87;98552.58;1819094;77;21072;-57
2021/12/23 09:56:26;;;;;;;43.92;26.52;;;;;;;-4.08;80.77;98558.98;1807188;78;21094;-64
2021/12/23 09:58:56;;;;;;;40.33;26.82;;;;;;;-4.16;80.79;98557.28;1823369;78;21415;-63
2021/12/23 10:01:22;;;;;;;43.55;26.35;;;;;;;-4.14;80.81;98557.11;1824005;78;20919;-63
2021/12/23 10:03:49;;;;;;;46.53;29.48;;;;;;;-4.12;80.66;98549.89;1818671;78;20993;-63
2021/12/23 10:06:16;;;;;;;41.63;27.30;;;;;;;-4.05;80.61;98550.25;1825005;78;20968;-64
2021/12/23 10:08:44;;;;;;;50.90;30.23;;;;;;;-4.00;80.33;98554.96;1827461;78;21106;-68
2021/12/23 10:11:16;;;;;;;44.95;26.10;;;;;;;-4.02;80.23;98551.69;1827269;78;20947;-59
2021/12/23 10:31:08;;;;;;;53.25;33.13;;;;;;;-3.90;79.81;98517.02;1805718;78;21360;-60
2021/12/23 10:37:05;;;;;;;45.98;29.12;;;;;;;-3.82;79.73;98512.16;1811653;78;20951;-65
2021/12/23 11:03:50;;;;;;;101.60;63.25;;;;;;;-4.50;80.26;98472.87;1890616;76;28281;-61
2021/12/23 11:06:23;;;;;;;69.20;41.37;;;;;;;-4.59;80.44;98464.82;1860672;77;20895;-61
2021/12/23 11:08:54;;;;;;;61.48;37.08;;;;;;;-4.57;80.64;98462.83;1854550;77;21189;-64
2021/12/23 11:37:05;;;;;;;50.35;30.88;;;;;;;-3.91;80.04;98406.77;1826278;77;21125;-60
2021/12/23 11:39:30;;;;;;;58.15;35.83;;;;;;;-3.85;79.64;98399.49;1830485;77;21001;-58
2021/12/23 11:42:02;;;;;;;72.20;48.73;;;;;;;-3.91;79.46;98403.36;1850377;77;20928;-63
2021/12/23 11:44:22;;;;;;;52.23;34.38;;;;;;;-3.93;79.53;98400.92;1830026;77;20962;-60
2021/12/23 11:46:53;;;;;;;48.30;29.40;;;;;;;-3.95;79.36;98407.34;1845938;77;20967;-63
2021/12/23 11:49:18;;;;;;;46.48;32.38;;;;;;;-3.96;79.45;98405.24;1845780;77;22257;-64
2021/12/23 11:54:39;;;;;;;40.88;27.50;;;;;;;-3.82;79.36;98391.77;1826555;78;20936;-64
2021/12/23 11:57:16;;;;;;;50.33;32.30;;;;;;;-3.80;79.21;98383.22;1837237;77;20939;-64
2021/12/23 12:00:02;;;;;;;49.23;30.12;;;;;;;-3.80;79.28;98389.27;1833423;77;21081;-64
2021/12/23 12:02:23;;;;;;;37.38;25.27;;;;;;;-3.75;79.25;98385.59;1829892;77;21085;-60
2021/12/23 12:04:53;;;;;;;43.28;26.50;;;;;;;-3.74;79.02;98386.37;1838191;77;20932;-64
2021/12/23 12:07:22;;;;;;;49.42;29.12;;;;;;;-3.75;79.05;98388.70;1785576;77;20882;-62
2021/12/23 12:10:00;;;;;;;41.25;27.65;;;;;;;-3.72;79.01;98387.02;1765170;79;21585;-63
2021/12/23 12:12:38;;;;;;;39.67;24.37;;;;;;;-3.69;79.32;98379.58;1813238;77;20986;-62
2021/12/23 12:15:30;;;;;;;46.53;28.12;;;;;;;-3.63;79.50;98379.33;1824426;77;21110;-60
2021/12/23 12:18:02;;;;;;;46.68;30.88;;;;;;;-3.56;79.35;98374.94;1732189;81;20851;-63
2021/12/23 12:20:46;;;;;;;60.83;35.65;;;;;;;-3.49;79.21;98367.41;1745588;81;20932;-60
2021/12/23 12:23:22;;;;;;;66.22;38.67;;;;;;;-3.42;79.06;98357.49;1736322;81;21055;-62
2021/12/23 12:25:56;;;;;;;55.60;36.05;;;;;;;-3.37;78.87;98357.23;1721716;81;21050;-65
2021/12/23 12:28:37;;;;;;;48.52;31.15;;;;;;;-3.35;78.84;98348.68;1740657;81;21532;-61
2021/12/23 12:31:09;;;;;;;55.50;33.20;;;;;;;-3.30;78.61;98341.55;1724801;81;21461;-61
2021/12/23 12:33:44;;;;;;;43.90;28.57;;;;;;;-3.23;78.36;98344.52;1724957;81;21062;-59
2021/12/23 12:36:16;;;;;;;;;;;;;;;-3.18;78.06;98335.55;1727989;82;20986;-63
2021/12/23 12:38:55;;;;;;;43.30;26.77;;;;;;;-3.21;77.58;98334.64;1733703;81;20376;-62
2021/12/23 12:41:32;;;;;;;41.98;26.07;;;;;;;-3.28;77.36;98331.68;1731261;80;21130;-61
2021/12/23 12:44:25;;;;;;;49.18;30.72;;;;;;;-3.33;77.24;98331.45;1723328;81;21105;-62
2021/12/23 12:47:27;;;;;;;50.15;31.68;;;;;;;-3.37;77.35;98327.11;1738317;81;20883;-59
2021/12/23 12:49:41;;;;;;;53.02;33.63;;;;;;;-3.34;77.37;98320.16;1714457;81;21106;-62
2021/12/23 12:52:18;;;;;;;49.18;30.37;;;;;;;-3.32;77.06;98320.77;1746219;81;21034;-63
2021/12/23 12:54:53;;;;;;;85.83;53.98;;;;;;;-3.35;76.96;98325.10;1741935;81;21146;-63
2021/12/23 12:57:24;;;;;;;71.17;43.20;;;;;;;-3.41;77.12;98317.22;1738282;81;21446;-62
2021/12/23 12:59:52;;;;;;;68.47;40.00;;;;;;;-3.41;77.39;98319.31;1735505;81;20978;-63
2021/12/23 13:02:31;;;;;;;64.58;39.00;;;;;;;-3.37;77.42;98310.09;1729347;81;21079;-63
2021/12/23 13:05:09;;;;;;;48.90;30.88;;;;;;;-3.33;77.39;98308.69;1732223;81;20868;-65
2021/12/23 13:07:43;;;;;;;48.55;29.75;;;;;;;-3.33;77.18;98311.31;1725827;81;21100;-65
2021/12/23 13:10:21;;;;;;;44.60;29.10;;;;;;;-3.33;77.16;98302.14;1735149;81;20989;-60
2021/12/23 13:13:05;;;;;;;38.45;24.47;;;;;;;-3.37;77.00;98302.23;1667275;81;21442;-63
2021/12/23 13:15:39;;;;;;;37.03;24.25;;;;;;;-3.40;76.58;98296.06;1722546;82;20900;-58
2021/12/23 13:18:12;;;;;;;42.60;26.57;;;;;;;-3.50;76.25;98303.45;1731141;81;21423;-57
2021/12/23 13:20:47;;;;;;;42.90;28.80;;;;;;;-3.58;76.30;98299.70;1728578;81;21690;-64
2021/12/23 13:23:22;;;;;;;49.42;29.35;;;;;;;-3.60;76.44;98301.67;1728829;81;20960;-61
2021/12/23 13:25:56;;;;;;;44.35;28.17;;;;;;;-3.59;76.48;98307.23;1722810;82;20896;-64
2021/12/23 13:28:50;;;;;;;55.98;33.95;;;;;;;-3.54;76.48;98304.85;1725872;81;20937;-63
2021/12/23 13:31:24;;;;;;;61.25;38.50;;;;;;;-3.55;76.44;98307.15;1724921;81;20993;-60
2021/12/23 13:33:58;;;;;;;59.70;37.95;;;;;;;-3.54;76.30;98303.55;1730012;82;21254;-62
2021/12/23 13:36:28;;;;;;;47.90;30.10;;;;;;;-3.57;76.21;98299.99;1733448;81;20959;-63
2021/12/23 13:39:11;;;;;;;40.55;25.70;;;;;;;-3.64;76.16;98299.14;1722550;82;21392;-65
2021/12/23 13:41:44;;;;;;;45.85;30.17;;;;;;;-3.72;76.05;98295.39;1722071;82;20939;-63
2021/12/23 13:44:28;;;;;;;48.05;33.05;;;;;;;-3.83;76.24;98294.59;1721929;82;20955;-59
2021/12/23 13:47:12;;;;;;;45.83;30.45;;;;;;;-3.88;76.37;98286.01;1726678;80;21723;-60
2021/12/23 13:49:56;;;;;;;73.15;48.92;;;;;;;-3.88;76.46;98282.08;1715692;81;21345;-60
2021/12/23 13:52:33;;;;;;;77.30;48.65;;;;;;;-3.89;76.57;98278.36;1742883;81;21021;-56
2021/12/23 13:55:13;;;;;;;75.35;47.00;;;;;;;-3.94;76.60;98272.39;1734744;81;20991;-54
2021/12/23 13:57:49;;;;;;;82.33;52.10;;;;;;;-3.98;76.79;98259.89;1730456;81;21022;-64
2021/12/23 14:00:23;;;;;;;88.85;57.75;;;;;;;-4.04;76.87;98261.45;1725555;81;21752;-64
2021/12/23 14:02:54;;;;;;;70.28;43.30;;;;;;;-4.09;77.02;98249.44;1731586;81;20983;-65
2021/12/23 14:05:22;;;;;;;75.25;45.65;;;;;;;-4.12;77.10;98250.33;1736121;80;21033;-60
2021/12/23 14:07:51;;;;;;;69.53;44.35;;;;;;;-4.17;77.25;98246.98;1728138;81;21165;-67
2021/12/23 14:10:26;;;;;;;77.37;46.02;;;;;;;-4.24;77.37;98239.06;1715316;82;21075;-61
2021/12/23 14:12:59;;;;;;;79.85;46.50;;;;;;;-4.30;77.60;98243.77;1748366;81;21097;-63
2021/12/23 14:15:30;;;;;;;78.25;43.65;;;;;;;-4.32;77.77;98235.30;1681746;83;21093;-64
2021/12/23 14:18:17;;;;;;;76.35;45.30;;;;;;;-4.31;77.89;98236.12;1722629;81;20904;-58
2021/12/23 14:23:34;;;;;;;90.20;50.50;;;;;;;-4.39;78.12;98236.25;1725138;82;20937;-59
2021/12/23 14:26:18;;;;;;;84.97;49.03;;;;;;;-4.46;78.24;98225.74;1714169;82;21063;-65
2021/12/23 14:28:50;;;;;;;75.37;43.45;;;;;;;-4.56;78.28;98231.79;1729241;82;21665;-61
2021/12/23 14:31:26;;;;;;;81.17;47.60;;;;;;;-4.68;78.52;98226.75;1735240;81;21040;-62
2021/12/23 14:34:06;;;;;;;75.65;47.93;;;;;;;-4.79;78.77;98219.42;1729000;82;20857;-64
2021/12/23 14:36:37;;;;;;;73.37;45.60;;;;;;;-4.85;79.03;98224.89;1744625;81;21174;-62
2021/12/23 14:39:14;;;;;;;78.85;46.40;;;;;;;-4.93;79.10;98214.59;1744981;81;21112;-58
2021/12/23 14:41:49;;;;;;;91.08;49.08;;;;;;;-5.00;79.38;98211.59;1752578;81;21038;-60
2021/12/23 14:44:28;;;;;;;82.92;47.90;;;;;;;-5.02;79.43;98204.45;1735799;81;20963;-60
2021/12/23 14:47:07;;;;;;;78.40;46.77;;;;;;;-5.03;79.53;98208.04;1747730;81;20983;-62
2021/12/23 14:52:27;;;;;;;86.20;46.95;;;;;;;-5.08;79.72;98203.86;1731808;81;21128;-61
2021/12/23 14:55:04;;;;;;;88.62;46.77;;;;;;;-5.12;79.69;98202.63;1745680;81;20923;-59
2021/12/23 14:57:55;;;;;;;81.12;47.80;;;;;;;-5.14;79.72;98195.48;1747916;81;21035;-61
2021/12/23 15:00:35;;;;;;;88.33;50.40;;;;;;;-5.14;79.78;98190.26;1741374;81;20972;-63
2021/12/23 15:03:07;;;;;;;83.72;49.25;;;;;;;-5.13;79.76;98182.72;1744772;81;20944;-60
2021/12/23 15:05:37;;;;;;;84.52;47.35;;;;;;;-5.16;79.73;98185.23;1754484;81;21494;-60
2021/12/23 15:08:06;;;;;;;97.30;51.33;;;;;;;-5.15;79.68;98187.32;1747844;80;21038;-60
2021/12/23 15:10:43;;;;;;;124.20;63.35;;;;;;;-5.19;79.62;98184.29;1744517;81;20923;-63
2021/12/23 15:13:31;;;;;;;127.05;66.60;;;;;;;-5.17;79.64;98177.56;1745389;81;20915;-64
2021/12/23 15:16:06;;;;;;;125.30;69.32;;;;;;;-5.14;79.60;98174.59;1752453;81;20883;-63
2021/12/23 15:18:53;;;;;;;93.67;55.75;;;;;;;-5.11;79.44;98170.30;1753491;81;21585;-63
2021/12/23 15:21:19;;;;;;;88.10;47.53;;;;;;;-5.11;79.33;98162.47;1745275;81;20888;-61
2021/12/23 15:23:47;;;;;;;81.72;50.78;;;;;;;-5.14;79.19;98154.51;1747916;81;21058;-63
2021/12/23 15:26:25;;;;;;;88.35;49.18;;;;;;;-5.17;79.05;98155.36;1748526;81;21013;-61
2021/12/23 15:29:16;;;;;;;81.82;47.70;;;;;;;-5.20;79.13;98148.70;1736698;81;21454;-62
2021/12/23 15:31:53;;;;;;;84.87;46.63;;;;;;;-5.24;79.02;98147.48;1747655;81;21845;-64
2021/12/23 15:34:20;;;;;;;77.60;46.65;;;;;;;-5.24;79.00;98140.13;1716748;81;20869;-59
2021/12/23 15:36:46;;;;;;;75.20;44.58;;;;;;;-5.24;79.02;98128.38;1743615;81;20871;-60
2021/12/23 15:39:35;;;;;;;80.70;46.63;;;;;;;-5.21;78.95;98124.09;1737188;81;21016;-64
2021/12/23 15:42:06;;;;;;;75.32;45.65;;;;;;;-5.20;78.90;98127.81;1746309;81;20967;-59
2021/12/23 15:44:36;;;;;;;86.55;45.03;;;;;;;-5.17;78.85;98121.41;1751217;81;21494;-62
2021/12/23 15:47:08;;;;;;;81.55;45.78;;;;;;;-5.15;78.72;98119.42;1745152;81;21021;-64
2021/12/23 15:49:34;;;;;;;82.17;45.52;;;;;;;-5.16;78.66;98121.73;1736740;81;21332;-63
2021/12/23 15:52:02;;;;;;;80.42;46.58;;;;;;;-5.14;78.57;98114.52;1729481;82;21048;-60
2021/12/23 15:54:29;;;;;;;78.78;44.88;;;;;;;-5.11;78.49;98112.84;1732046;82;21094;-65
2021/12/23 15:56:56;;;;;;;73.87;43.78;;;;;;;-5.07;78.34;98108.85;1729377;82;21597;-60
2021/12/23 15:59:24;;;;;;;79.07;43.90;;;;;;;-5.06;78.24;98102.61;1722682;82;21045;-59
2021/12/23 16:01:51;;;;;;;76.20;44.50;;;;;;;-5.09;78.08;98106.93;1735023;82;21467;-62
2021/12/23 16:04:26;;;;;;;76.90;45.08;;;;;;;-5.12;78.02;98098.16;1724626;82;20963;-60
2021/12/23 16:09:31;;;;;;;81.05;44.58;;;;;;;-5.02;77.90;98101.27;1735071;82;21727;-58
2021/12/23 16:11:58;;;;;;;78.47;43.52;;;;;;;-5.02;77.64;98094.23;1731625;82;21046;-60
2021/12/23 16:14:25;;;;;;;76.95;44.23;;;;;;;-4.98;77.62;98096.77;1728079;82;21697;-60
2021/12/23 16:16:53;;;;;;;64.50;39.18;;;;;;;-4.92;77.52;98091.27;1720730;82;21039;-63
2021/12/23 16:19:20;;;;;;;68.42;38.98;;;;;;;-4.90;77.26;98087.99;1737118;82;21527;-59
2021/12/23 16:21:47;;;;;;;69.85;40.23;;;;;;;-4.90;77.11;98087.99;1729740;82;22398;-58
2021/12/23 16:24:14;;;;;;;70.97;42.20;;;;;;;-4.94;76.88;98081.51;1730730;82;20986;-64
2021/12/23 16:26:42;;;;;;;67.60;41.50;;;;;;;-4.98;76.74;98073.75;1732777;82;20930;-58
2021/12/23 16:29:09;;;;;;;67.05;39.35;;;;;;;-5.04;76.61;98066.69;1737009;82;20888;-59
2021/12/23 16:31:36;;;;;;;69.17;39.95;;;;;;;-5.06;76.43;98066.05;1728091;82;20975;-64
2021/12/23 16:34:03;;;;;;;62.15;35.73;;;;;;;-5.09;76.29;98054.20;1738236;82;21150;-59
2021/12/23 16:36:32;;;;;;;58.33;34.35;;;;;;;-5.10;76.08;98051.27;1733470;82;21454;-61
2021/12/23 16:38:59;;;;;;;55.73;31.77;;;;;;;-5.05;75.81;98050.69;1735941;82;20934;-63
2021/12/23 16:41:27;;;;;;;51.30;31.17;;;;;;;-4.98;75.45;98045.02;1735198;82;20896;-60
2021/12/23 16:43:55;;;;;;;48.63;29.82;;;;;;;-4.93;74.87;98042.64;1739217;82;21040;-60
2021/12/23 16:46:22;;;;;;;47.88;27.65;;;;;;;-4.96;74.23;98043.02;1733973;82;21122;-64
2021/12/23 16:48:49;;;;;;;41.90;23.27;;;;;;;-4.98;73.85;98035.37;1735595;82;21020;-62
2021/12/23 16:51:16;;;;;;;42.60;23.98;;;;;;;-4.96;73.47;98036.48;1735149;82;20930;-65
2021/12/23 16:53:43;;;;;;;39.60;25.35;;;;;;;-4.96;73.00;98032.56;1735942;82;20916;-64
2021/12/23 16:58:41;;;;;;;40.70;24.43;;;;;;;-4.89;72.53;98017.74;1734933;82;21125;-62
2021/12/23 17:01:08;;;;;;;39.88;24.02;;;;;;;-4.88;72.24;98017.56;1735101;82;20932;-61
2021/12/23 17:03:36;;;;;;;40.05;24.18;;;;;;;-4.87;71.88;98015.73;1733055;82;20903;-62
2021/12/23 17:06:03;;;;;;;33.60;21.65;;;;;;;-4.88;71.64;98008.92;1731571;82;21462;-64
2021/12/23 17:08:30;;;;;;;36.42;20.55;;;;;;;-4.93;71.00;98000.34;1730042;82;20900;-61
2021/12/23 17:10:59;;;;;;;36.90;19.20;;;;;;;-4.96;71.08;97993.38;1732745;82;21262;-66
2021/12/23 17:13:25;;;;;;;32.03;18.32;;;;;;;-4.97;70.81;97994.40;1738085;82;20972;-62
2021/12/23 17:15:52;;;;;;;31.95;19.50;;;;;;;-4.98;70.62;97992.77;1732297;82;21532;-63
2021/12/23 17:18:35;;;;;;;34.10;20.08;;;;;;;-5.00;70.62;97994.77;1732562;82;20904;-63
2021/12/23 17:23:32;;;;;;;31.02;18.90;;;;;;;-5.01;70.28;97977.47;1731189;82;21141;-62
2021/12/23 17:26:00;;;;;;;34.45;20.30;;;;;;;-5.06;69.81;97977.23;1732558;82;21161;-61
2021/12/23 17:28:26;;;;;;;35.43;21.10;;;;;;;-5.13;69.77;97979.00;1726148;82;20985;-59
2021/12/23 17:30:53;;;;;;;38.23;22.58;;;;;;;-5.16;70.05;97966.34;1732917;82;20919;-59
2021/12/23 17:33:21;;;;;;;36.13;19.75;;;;;;;-5.16;70.15;97968.95;1729586;82;21437;-64
2021/12/23 17:35:52;;;;;;;40.52;23.65;;;;;;;-5.14;70.36;97964.34;1722109;82;21124;-59
2021/12/23 17:38:20;;;;;;;44.63;23.00;;;;;;;-5.13;70.33;97965.45;1722812;82;20988;-63
2021/12/23 17:40:48;;;;;;;45.55;25.00;;;;;;;-5.11;70.24;97956.92;1725548;82;21101;-64
2021/12/23 17:43:15;;;;;;;46.45;25.00;;;;;;;-5.08;69.92;97952.63;1735735;82;21515;-59
2021/12/23 17:45:45;;;;;;;85.55;40.70;;;;;;;-5.08;69.87;97946.59;1737967;82;20936;-63
2021/12/23 17:48:12;;;;;;;45.05;22.80;;;;;;;-5.10;69.89;97940.75;1733948;82;21764;-64
2021/12/23 17:50:40;;;;;;;34.80;19.50;;;;;;;-5.15;69.66;97936.61;1731861;82;20885;-63
2021/12/23 17:53:09;;;;;;;35.50;20.57;;;;;;;-5.22;69.65;97931.84;1719785;82;20895;-60
2021/12/23 17:55:37;;;;;;;31.95;19.92;;;;;;;-5.25;69.79;97919.19;1720160;82;20927;-61
2021/12/23 17:58:05;;;;;;;36.55;20.88;;;;;;;-5.23;69.72;97911.45;1732869;82;21003;-62
2021/12/23 18:00:42;;;;;;;31.52;19.77;;;;;;;-5.24;69.76;97907.23;1718359;82;20892;-64
2021/12/23 18:03:09;;;;;;;32.13;18.07;;;;;;;-5.26;69.71;97900.59;1735886;82;20888;-62
2021/12/23 18:05:40;;;;;;;28.92;17.77;;;;;;;-5.33;69.50;97891.42;1725679;82;21016;-62
2021/12/23 18:08:05;;;;;;;30.68;19.48;;;;;;;-5.37;69.46;97886.26;1732836;82;21028;-62
2021/12/23 18:10:32;;;;;;;31.68;18.67;;;;;;;-5.40;69.57;97883.24;1726644;82;20993;-62
2021/12/23 18:12:58;;;;;;;31.65;16.65;;;;;;;-5.40;69.47;97872.80;1725941;82;21897;-64
2021/12/23 18:15:25;;;;;;;30.68;18.27;;;;;;;-5.41;69.26;97871.17;1727863;82;20966;-63
2021/12/23 18:17:53;;;;;;;33.45;18.85;;;;;;;-5.41;68.94;97864.65;1730177;82;20986;-64
2021/12/23 18:20:20;;;;;;;24.32;15.68;;;;;;;-5.41;69.03;97850.30;1729276;82;20912;-60
2021/12/23 18:22:47;;;;;;;29.18;16.50;;;;;;;-5.38;68.79;97841.59;1731788;82;20932;-60
2021/12/23 18:25:15;;;;;;;26.80;16.12;;;;;;;-5.37;68.56;97839.27;1738046;82;21404;-59
2021/12/23 18:27:42;;;;;;;28.90;16.37;;;;;;;-5.38;68.41;97837.67;1732896;82;20916;-63
2021/12/23 18:30:12;;;;;;;25.17;15.43;;;;;;;-5.38;68.13;97836.37;1732150;82;20887;-63
2021/12/23 18:32:40;;;;;;;25.77;14.75;;;;;;;-5.33;67.86;97833.17;1724704;82;21003;-62
2021/12/23 18:35:08;;;;;;;20.72;12.98;;;;;;;-5.35;67.67;97831.27;1718508;82;20891;-63
2021/12/23 18:37:35;;;;;;;29.27;15.65;;;;;;;-5.36;67.43;97831.75;1733920;82;21028;-64
2021/12/23 18:40:05;;;;;;;29.45;15.43;;;;;;;-5.40;67.42;97833.64;1697435;83;20962;-59
2021/12/23 18:42:39;;;;;;;24.75;14.40;;;;;;;-5.41;67.41;97821.58;1738660;82;21451;-64
2021/12/23 18:45:02;;;;;;;23.12;14.03;;;;;;;-5.42;67.23;97825.20;1736536;82;21177;-59
2021/12/23 18:47:29;;;;;;;28.17;15.10;;;;;;;-5.47;67.30;97822.36;1735947;82;21526;-62
2021/12/23 18:49:56;;;;;;;25.23;15.18;;;;;;;-5.50;67.52;97822.73;1737817;82;20974;-62
2021/12/23 18:52:22;;;;;;;28.12;16.42;;;;;;;-5.51;67.37;97821.14;1733197;82;21492;-61
2021/12/23 18:54:49;;;;;;;29.07;16.10;;;;;;;-5.52;67.61;97820.83;1729412;82;20978;-63
2021/12/23 18:57:16;;;;;;;27.82;15.93;;;;;;;-5.53;67.54;97822.63;1734704;82;21006;-63
2021/12/23 18:59:43;;;;;;;27.93;16.12;;;;;;;-5.56;67.61;97819.90;1737989;82;21137;-58
2021/12/23 19:02:27;;;;;;;27.60;17.62;;;;;;;-5.58;67.69;97815.38;1723775;82;21870;-63
2021/12/23 19:07:11;;;;;;;34.95;21.23;;;;;;;-5.59;67.70;97809.87;1727988;82;20928;-62
2021/12/23 19:09:40;;;;;;;27.13;18.30;;;;;;;-5.61;67.58;97810.56;1728292;82;20874;-64
2021/12/23 19:12:08;;;;;;;44.40;26.37;;;;;;;-5.66;67.40;97803.80;1736794;82;21066;-59
2021/12/23 19:14:35;;;;;;;27.30;17.23;;;;;;;-5.67;67.58;97796.96;1736358;82;21709;-60
2021/12/23 19:17:04;;;;;;;30.23;18.90;;;;;;;-5.70;67.08;97797.34;1730782;82;20923;-63
2021/12/23 19:19:32;;;;;;;30.82;19.32;;;;;;;-5.74;67.46;97798.73;1712094;82;20945;-62
2021/12/23 19:21:58;;;;;;;29.12;16.50;;;;;;;-5.75;67.66;97804.96;1726156;82;20920;-62
2021/12/23 19:24:28;;;;;;;36.42;22.30;;;;;;;-5.69;67.81;97804.18;1729627;82;20919;-62
2021/12/23 19:26:55;;;;;;;41.58;26.42;;;;;;;-5.61;67.70;97805.84;1734497;82;21733;-59
2021/12/23 19:29:22;;;;;;;63.75;45.28;;;;;;;-5.59;67.31;97799.42;1728167;82;20983;-64
2021/12/23 19:31:49;;;;;;;39.00;25.90;;;;;;;-5.59;67.50;97799.42;1720864;82;20930;-61
2021/12/23 19:34:16;;;;;;;42.03;27.27;;;;;;;-5.56;67.41;97793.80;1725694;82;20968;-61
2021/12/23 19:36:42;;;;;;;34.67;21.87;;;;;;;-5.50;67.55;97796.64;1735964;82;21044;-60
2021/12/23 19:39:10;;;;;;;28.85;18.15;;;;;;;-5.47;67.52;97793.16;1732246;82;21752;-62
2021/12/23 19:41:36;;;;;;;37.40;21.05;;;;;;;-5.46;67.54;97782.23;1726025;82;21006;-62
2021/12/23 19:44:04;;;;;;;28.57;16.97;;;;;;;-5.48;67.39;97778.98;1735705;82;20952;-60
2021/12/23 19:46:33;;;;;;;31.70;18.52;;;;;;;-5.47;67.32;97776.69;1730215;82;20938;-64
2021/12/23 19:48:59;;;;;;;31.80;17.30;;;;;;;-5.51;67.33;97776.78;1736723;82;20963;-61
2021/12/23 19:51:26;;;;;;;31.35;17.67;;;;;;;-5.50;67.39;97777.06;1731062;82;21084;-59
2021/12/23 19:53:53;;;;;;;29.48;18.32;;;;;;;-5.48;67.54;97772.45;1724773;82;20991;-63
2021/12/23 19:56:20;;;;;;;32.73;18.87;;;;;;;-5.46;67.47;97769.17;1722002;82;20875;-62
2021/12/23 19:58:47;;;;;;;30.72;17.48;;;;;;;-5.45;67.59;97767.66;1739864;82;20964;-63
2021/12/23 20:01:14;;;;;;;33.08;17.35;;;;;;;-5.44;67.41;97755.42;1732889;82;20987;-64
2021/12/23 20:03:41;;;;;;;29.37;16.48;;;;;;;-5.47;67.46;97752.70;1738134;82;21725;-63
2021/12/23 20:06:08;;;;;;;34.67;19.30;;;;;;;-5.47;67.17;97738.84;1736360;82;21149;-58
2021/12/23 20:08:35;;;;;;;28.25;15.93;;;;;;;-5.46;67.33;97731.33;1734686;82;20983;-64
2021/12/23 20:11:02;;;;;;;42.15;18.62;;;;;;;-5.47;67.00;97732.31;1726998;82;21506;-60
2021/12/23 20:13:29;;;;;;;36.35;18.87;;;;;;;-5.50;66.99;97718.34;1729227;82;21029;-63
2021/12/23 20:15:56;;;;;;;26.77;17.15;;;;;;;-5.51;67.04;97708.39;1730000;82;21126;-64
2021/12/23 20:18:23;;;;;;;29.72;16.87;;;;;;;-5.49;67.29;97701.70;1737370;82;20948;-60
2021/12/23 20:20:52;;;;;;;31.48;17.60;;;;;;;-5.47;67.36;97697.89;1734595;82;20872;-62
2021/12/23 20:23:19;;;;;;;36.55;20.75;;;;;;;-5.49;67.10;97697.78;1730352;82;21339;-62
2021/12/23 20:25:46;;;;;;;34.65;18.92;;;;;;;-5.52;67.41;97695.06;1731090;82;20907;-63
2021/12/23 20:28:13;;;;;;;29.18;18.42;;;;;;;-5.56;67.60;97684.19;1725388;82;21742;-65
2021/12/23 20:30:42;;;;;;;34.43;19.80;;;;;;;-5.52;67.83;97678.59;1717292;82;20896;-63
2021/12/23 20:33:10;;;;;;;28.85;17.42;;;;;;;-5.48;67.93;97670.66;1728943;82;21062;-64
2021/12/23 20:35:40;;;;;;;30.43;17.57;;;;;;;-5.45;67.85;97661.14;1734898;82;21569;-58
2021/12/23 20:38:07;;;;;;;32.15;18.52;;;;;;;-5.49;67.80;97661.24;1728597;82;20966;-60
2021/12/23 20:40:33;;;;;;;27.62;16.97;;;;;;;-5.49;68.00;97665.16;1719176;82;21116;-61
2021/12/23 20:43:01;;;;;;;29.20;16.82;;;;;;;-5.50;67.92;97664.34;1719310;82;20860;-63
2021/12/23 20:45:28;;;;;;;36.30;19.05;;;;;;;-5.51;68.07;97648.89;1723714;82;21403;-63
2021/12/23 20:47:55;;;;;;;30.35;16.65;;;;;;;-5.53;67.97;97649.07;1729153;82;20948;-59
2021/12/23 20:50:29;;;;;;;38.42;19.77;;;;;;;-5.55;68.10;97644.06;1729799;82;21046;-65
2021/12/23 20:52:57;;;;;;;32.20;19.15;;;;;;;-5.56;68.11;97632.00;1730476;82;21137;-64
2021/12/23 20:55:28;;;;;;;31.70;18.87;;;;;;;-5.53;68.36;97624.80;1727051;82;20864;-61
2021/12/23 20:57:52;;;;;;;31.20;17.52;;;;;;;-5.52;68.20;97609.42;1735277;82;21544;-66
2021/12/23 21:00:19;;;;;;;30.08;17.27;;;;;;;-5.52;68.30;97608.13;1730326;82;20920;-59
2021/12/23 21:02:46;;;;;;;27.98;17.48;;;;;;;-5.53;68.30;97606.53;1722698;82;21063;-60
2021/12/23 21:05:13;;;;;;;33.78;18.12;;;;;;;-5.58;68.33;97601.38;1731595;82;21087;-62
2021/12/23 21:07:40;;;;;;;32.50;18.73;;;;;;;-5.59;68.38;97595.88;1732689;82;20834;-60
2021/12/23 21:10:08;;;;;;;31.55;18.32;;;;;;;-5.58;68.36;97590.95;1737001;82;20928;-59
2021/12/23 21:12:36;;;;;;;34.58;18.17;;;;;;;-5.56;68.32;97602.52;1733490;82;21387;-62
2021/12/23 21:15:04;;;;;;;27.07;15.83;;;;;;;-5.53;68.22;97579.13;1735840;82;20948;-59
2021/12/23 21:17:33;;;;;;;27.48;16.23;;;;;;;-5.50;68.18;97569.58;1730633;82;21469;-58
2021/12/23 21:20:02;;;;;;;30.40;15.90;;;;;;;-5.50;67.94;97562.56;1732997;82;20891;-59
2021/12/23 21:22:28;;;;;;;28.30;14.73;;;;;;;-5.49;68.03;97560.76;1727815;82;20896;-65
2021/12/23 21:24:55;;;;;;;27.05;15.13;;;;;;;-5.49;67.63;97558.15;1729418;82;21409;-60
2021/12/23 21:27:22;;;;;;;30.68;17.80;;;;;;;-5.50;67.89;97548.70;1734397;82;20987;-61
2021/12/23 21:29:49;;;;;;;25.40;15.08;;;;;;;-5.52;67.64;97542.88;1734301;82;21684;-59
2021/12/23 21:32:15;;;;;;;28.50;16.52;;;;;;;-5.53;67.81;97534.77;1726397;82;20926;-60
2021/12/23 21:34:44;;;;;;;27.15;16.87;;;;;;;-5.54;67.97;97527.43;1730507;82;21067;-60
2021/12/23 21:37:10;;;;;;;26.65;17.27;;;;;;;-5.50;67.86;97522.60;1733790;82;21021;-64
2021/12/23 21:39:37;;;;;;;29.02;17.00;;;;;;;-5.49;67.71;97519.00;1733057;82;20859;-64
2021/12/23 21:42:05;;;;;;;24.00;14.98;;;;;;;-5.46;67.93;97516.00;1724109;82;21116;-60
2021/12/23 21:44:32;;;;;;;24.02;14.58;;;;;;;-5.44;67.80;97523.13;1735986;82;21021;-62
2021/12/23 21:47:00;;;;;;;30.62;16.15;;;;;;;-5.44;67.72;97518.68;1735827;82;20926;-60
2021/12/23 21:49:27;;;;;;;21.95;13.60;;;;;;;-5.43;67.71;97514.27;1729402;82;20907;-60
2021/12/23 21:51:54;;;;;;;23.57;13.38;;;;;;;-5.44;67.82;97512.69;1732307;82;20902;-61
2021/12/23 21:54:21;;;;;;;27.52;14.60;;;;;;;-5.39;67.87;97508.45;1728820;82;21114;-59
2021/12/23 21:56:48;;;;;;;22.52;13.80;;;;;;;-5.32;67.75;97505.33;1730221;82;20915;-64
2021/12/23 21:59:15;;;;;;;22.07;13.48;;;;;;;-5.32;67.65;97507.16;1732322;82;20971;-64
2021/12/23 22:01:44;;;;;;;27.02;14.25;;;;;;;-5.31;67.65;97497.81;1728578;82;21513;-64
2021/12/23 22:04:12;;;;;;;28.25;15.28;;;;;;;-5.29;67.56;97499.72;1735085;82;20998;-64
2021/12/23 22:06:43;;;;;;;27.95;14.60;;;;;;;-5.25;67.59;97494.91;1736304;82;20952;-60
2021/12/23 22:09:11;;;;;;;20.82;12.95;;;;;;;-5.25;67.32;97483.16;1730802;82;20923;-64
2021/12/23 22:11:39;;;;;;;23.77;13.43;;;;;;;-5.23;67.39;97485.06;1729996;82;20942;-59
2021/12/23 22:14:07;;;;;;;22.10;13.48;;;;;;;-5.21;67.09;97475.21;1732561;82;20928;-65
2021/12/23 22:16:33;;;;;;;23.35;13.43;;;;;;;-5.23;67.09;97468.09;1734499;82;21534;-63